sensor_id;sensor_type;location;lat;lon;timestamp;temperature;humidity
1175;DHT22;576;48.418;10.074;2023-05-29T00:02:21;26.90;60.90
1175;DHT22;576;48.418;10.074;2023-05-29T00:04:50;26.80;60.90
1175;DHT22;576;48.418;10.074;2023-05-29T00:07:18;26.80;60.90
1175;DHT22;576;48.418;10.074;2023-05-29T00:09:48;26.80;60.90
1175;DHT22;576;48.418;10.074;2023-05-29T00:12:16;26.80;61.00
1175;DHT22;576;48.418;10.074;2023-05-29T00:14:45;26.80;61.00
1175;DHT22;576;48.418;10.074;2023-05-29T00:17:13;26.80;61.00
1175;DHT22;576;48.418;10.074;2023-05-29T00:19:43;26.80;61.00
1175;DHT22;576;48.418;10.074;2023-05-29T00:22:11;26.80;61.00
1175;DHT22;576;48.418;10.074;2023-05-29T00:24:39;26.80;61.00
1175;DHT22;576;48.418;10.074;2023-05-29T00:27:09;26.80;61.00
1175;DHT22;576;48.418;10.074;2023-05-29T00:29:37;26.80;61.10
1175;DHT22;576;48.418;10.074;2023-05-29T00:32:06;26.70;61.10
1175;DHT22;576;48.418;10.074;2023-05-29T00:34:34;26.70;61.10
1175;DHT22;576;48.418;10.074;2023-05-29T00:37:03;26.70;61.10
1175;DHT22;576;48.418;10.074;2023-05-29T00:39:31;26.70;61.10
1175;DHT22;576;48.418;10.074;2023-05-29T00:41:59;26.70;61.10
1175;DHT22;576;48.418;10.074;2023-05-29T00:44:29;26.70;61.10
1175;DHT22;576;48.418;10.074;2023-05-29T00:46:57;26.70;61.10
1175;DHT22;576;48.418;10.074;2023-05-29T00:49:26;26.70;61.20
1175;DHT22;576;48.418;10.074;2023-05-29T00:51:54;26.70;61.20
1175;DHT22;576;48.418;10.074;2023-05-29T00:54:26;26.70;61.20
1175;DHT22;576;48.418;10.074;2023-05-29T00:56:55;26.70;61.20
1175;DHT22;576;48.418;10.074;2023-05-29T00:59:26;26.70;61.20
1175;DHT22;576;48.418;10.074;2023-05-29T01:01:56;26.60;61.20
1175;DHT22;576;48.418;10.074;2023-05-29T01:04:26;26.60;61.30
1175;DHT22;576;48.418;10.074;2023-05-29T01:06:54;26.60;61.30
1175;DHT22;576;48.418;10.074;2023-05-29T01:09:24;26.60;61.30
1175;DHT22;576;48.418;10.074;2023-05-29T01:11:59;26.60;61.30
1175;DHT22;576;48.418;10.074;2023-05-29T01:14:42;26.60;61.30
1175;DHT22;576;48.418;10.074;2023-05-29T01:17:17;26.60;61.30
1175;DHT22;576;48.418;10.074;2023-05-29T01:20:08;26.60;61.30
1175;DHT22;576;48.418;10.074;2023-05-29T01:25:56;26.60;61.40
1175;DHT22;576;48.418;10.074;2023-05-29T01:28:33;26.60;61.40
1175;DHT22;576;48.418;10.074;2023-05-29T01:31:05;26.60;61.40
1175;DHT22;576;48.418;10.074;2023-05-29T01:33:38;26.60;61.40
1175;DHT22;576;48.418;10.074;2023-05-29T01:36:08;26.50;61.40
1175;DHT22;576;48.418;10.074;2023-05-29T01:38:38;26.50;61.40
1175;DHT22;576;48.418;10.074;2023-05-29T01:41:06;26.50;61.50
1175;DHT22;576;48.418;10.074;2023-05-29T01:43:36;26.50;61.50
1175;DHT22;576;48.418;10.074;2023-05-29T01:46:05;26.50;61.50
1175;DHT22;576;48.418;10.074;2023-05-29T01:48:33;26.50;61.50
1175;DHT22;576;48.418;10.074;2023-05-29T01:51:02;26.50;61.50
1175;DHT22;576;48.418;10.074;2023-05-29T01:53:30;26.50;61.50
1175;DHT22;576;48.418;10.074;2023-05-29T01:55:59;26.50;61.50
1175;DHT22;576;48.418;10.074;2023-05-29T01:58:28;26.50;61.60
1175;DHT22;576;48.418;10.074;2023-05-29T02:00:58;26.50;61.60
1175;DHT22;576;48.418;10.074;2023-05-29T02:03:27;26.40;61.60
1175;DHT22;576;48.418;10.074;2023-05-29T02:05:57;26.40;61.60
1175;DHT22;576;48.418;10.074;2023-05-29T02:08:25;26.40;61.60
1175;DHT22;576;48.418;10.074;2023-05-29T02:10:54;26.40;61.60
1175;DHT22;576;48.418;10.074;2023-05-29T02:13:23;26.40;61.60
1175;DHT22;576;48.418;10.074;2023-05-29T02:15:51;26.40;61.60
1175;DHT22;576;48.418;10.074;2023-05-29T02:18:20;26.40;61.80
1175;DHT22;576;48.418;10.074;2023-05-29T02:20:49;26.40;61.70
1175;DHT22;576;48.418;10.074;2023-05-29T02:23:21;26.40;61.70
1175;DHT22;576;48.418;10.074;2023-05-29T02:25:50;26.40;61.80
1175;DHT22;576;48.418;10.074;2023-05-29T02:28:20;26.40;61.80
1175;DHT22;576;48.418;10.074;2023-05-29T02:30:48;26.40;61.80
1175;DHT22;576;48.418;10.074;2023-05-29T02:33:17;26.40;61.80
1175;DHT22;576;48.418;10.074;2023-05-29T02:35:46;26.40;61.80
1175;DHT22;576;48.418;10.074;2023-05-29T02:38:15;26.40;61.90
1175;DHT22;576;48.418;10.074;2023-05-29T02:40:43;26.30;61.90
1175;DHT22;576;48.418;10.074;2023-05-29T02:43:13;26.30;61.90
1175;DHT22;576;48.418;10.074;2023-05-29T02:45:41;26.30;61.90
1175;DHT22;576;48.418;10.074;2023-05-29T02:48:09;26.30;61.90
1175;DHT22;576;48.418;10.074;2023-05-29T02:50:37;26.30;61.90
1175;DHT22;576;48.418;10.074;2023-05-29T02:53:07;26.30;61.90
1175;DHT22;576;48.418;10.074;2023-05-29T02:55:35;26.30;62.00
1175;DHT22;576;48.418;10.074;2023-05-29T02:58:04;26.30;62.00
1175;DHT22;576;48.418;10.074;2023-05-29T03:00:33;26.30;62.00
1175;DHT22;576;48.418;10.074;2023-05-29T03:03:01;26.30;62.00
1175;DHT22;576;48.418;10.074;2023-05-29T03:05:30;26.30;62.00
1175;DHT22;576;48.418;10.074;2023-05-29T03:07:58;26.30;62.00
1175;DHT22;576;48.418;10.074;2023-05-29T03:10:29;26.30;62.00
1175;DHT22;576;48.418;10.074;2023-05-29T03:12:58;26.30;62.00
1175;DHT22;576;48.418;10.074;2023-05-29T03:15:26;26.30;62.00
1175;DHT22;576;48.418;10.074;2023-05-29T03:17:54;26.30;62.00
1175;DHT22;576;48.418;10.074;2023-05-29T03:20:27;26.20;62.00
1175;DHT22;576;48.418;10.074;2023-05-29T03:22:57;26.20;62.00
1175;DHT22;576;48.418;10.074;2023-05-29T03:25:27;26.20;62.00
1175;DHT22;576;48.418;10.074;2023-05-29T03:27:56;26.20;62.00
1175;DHT22;576;48.418;10.074;2023-05-29T03:30:25;26.20;62.00
1175;DHT22;576;48.418;10.074;2023-05-29T03:32:54;26.20;62.00
1175;DHT22;576;48.418;10.074;2023-05-29T03:35:33;26.20;62.00
1175;DHT22;576;48.418;10.074;2023-05-29T03:38:02;26.20;62.00
1175;DHT22;576;48.418;10.074;2023-05-29T03:40:30;26.20;62.00
1175;DHT22;576;48.418;10.074;2023-05-29T03:43:00;26.20;62.00
1175;DHT22;576;48.418;10.074;2023-05-29T03:45:28;26.20;62.20
1175;DHT22;576;48.418;10.074;2023-05-29T03:47:58;26.10;62.20
1175;DHT22;576;48.418;10.074;2023-05-29T03:50:26;26.20;62.20
1175;DHT22;576;48.418;10.074;2023-05-29T03:52:54;26.10;62.20
1175;DHT22;576;48.418;10.074;2023-05-29T03:55:25;26.10;61.90
1175;DHT22;576;48.418;10.074;2023-05-29T03:57:54;26.20;62.00
1175;DHT22;576;48.418;10.074;2023-05-29T04:00:25;26.20;61.90
1175;DHT22;576;48.418;10.074;2023-05-29T04:02:57;26.10;61.90
1175;DHT22;576;48.418;10.074;2023-05-29T04:05:26;26.20;61.90
1175;DHT22;576;48.418;10.074;2023-05-29T04:07:54;26.20;61.90
1175;DHT22;576;48.418;10.074;2023-05-29T04:10:41;26.20;61.90
1175;DHT22;576;48.418;10.074;2023-05-29T04:13:10;26.20;61.80
1175;DHT22;576;48.418;10.074;2023-05-29T04:15:40;26.10;61.90
1175;DHT22;576;48.418;10.074;2023-05-29T04:18:09;26.20;61.80
1175;DHT22;576;48.418;10.074;2023-05-29T04:20:38;26.10;61.80
1175;DHT22;576;48.418;10.074;2023-05-29T04:23:08;26.10;61.90
1175;DHT22;576;48.418;10.074;2023-05-29T04:25:36;26.10;61.70
1175;DHT22;576;48.418;10.074;2023-05-29T04:28:05;26.10;61.80
1175;DHT22;576;48.418;10.074;2023-05-29T04:30:33;26.20;61.90
1175;DHT22;576;48.418;10.074;2023-05-29T04:33:04;26.10;61.90
1175;DHT22;576;48.418;10.074;2023-05-29T04:35:33;26.10;62.00
1175;DHT22;576;48.418;10.074;2023-05-29T04:38:05;26.10;61.90
1175;DHT22;576;48.418;10.074;2023-05-29T04:40:34;26.10;62.00
1175;DHT22;576;48.418;10.074;2023-05-29T04:43:03;26.10;61.90
1175;DHT22;576;48.418;10.074;2023-05-29T04:45:47;26.10;61.90
1175;DHT22;576;48.418;10.074;2023-05-29T04:48:17;26.10;62.00
1175;DHT22;576;48.418;10.074;2023-05-29T04:50:46;26.10;62.00
1175;DHT22;576;48.418;10.074;2023-05-29T04:53:15;26.10;62.00
1175;DHT22;576;48.418;10.074;2023-05-29T04:55:43;26.10;62.00
1175;DHT22;576;48.418;10.074;2023-05-29T04:58:12;26.10;61.90
1175;DHT22;576;48.418;10.074;2023-05-29T05:00:40;26.10;62.00
1175;DHT22;576;48.418;10.074;2023-05-29T05:03:10;26.10;62.00
1175;DHT22;576;48.418;10.074;2023-05-29T05:05:40;26.10;62.00
1175;DHT22;576;48.418;10.074;2023-05-29T05:08:08;26.10;62.00
1175;DHT22;576;48.418;10.074;2023-05-29T05:10:36;26.10;62.00
1175;DHT22;576;48.418;10.074;2023-05-29T05:13:05;26.10;62.00
1175;DHT22;576;48.418;10.074;2023-05-29T05:15:36;26.10;62.00
1175;DHT22;576;48.418;10.074;2023-05-29T05:18:04;26.10;62.00
1175;DHT22;576;48.418;10.074;2023-05-29T05:20:33;26.10;62.00
1175;DHT22;576;48.418;10.074;2023-05-29T05:23:06;26.10;61.90
1175;DHT22;576;48.418;10.074;2023-05-29T05:25:34;26.10;62.00
1175;DHT22;576;48.418;10.074;2023-05-29T05:28:02;26.10;61.90
1175;DHT22;576;48.418;10.074;2023-05-29T05:30:33;26.10;61.90
1175;DHT22;576;48.418;10.074;2023-05-29T05:33:02;26.10;61.90
1175;DHT22;576;48.418;10.074;2023-05-29T05:35:31;26.20;61.90
1175;DHT22;576;48.418;10.074;2023-05-29T05:37:59;26.10;61.70
1175;DHT22;576;48.418;10.074;2023-05-29T05:40:30;26.20;61.30
1175;DHT22;576;48.418;10.074;2023-05-29T05:43:04;26.20;61.90
1175;DHT22;576;48.418;10.074;2023-05-29T05:45:53;26.20;61.80
1175;DHT22;576;48.418;10.074;2023-05-29T05:48:21;26.20;61.90
1175;DHT22;576;48.418;10.074;2023-05-29T05:50:49;26.20;61.90
1175;DHT22;576;48.418;10.074;2023-05-29T05:53:18;26.20;61.80
1175;DHT22;576;48.418;10.074;2023-05-29T05:55:49;26.20;61.80
1175;DHT22;576;48.418;10.074;2023-05-29T05:58:18;26.20;61.70
1175;DHT22;576;48.418;10.074;2023-05-29T06:00:47;26.20;61.50
1175;DHT22;576;48.418;10.074;2023-05-29T06:03:20;26.20;61.60
1175;DHT22;576;48.418;10.074;2023-05-29T06:05:54;26.20;61.80
1175;DHT22;576;48.418;10.074;2023-05-29T06:08:23;26.20;61.60
1175;DHT22;576;48.418;10.074;2023-05-29T06:10:53;26.20;61.80
1175;DHT22;576;48.418;10.074;2023-05-29T06:13:22;26.20;61.60
1175;DHT22;576;48.418;10.074;2023-05-29T06:15:56;26.20;61.60
1175;DHT22;576;48.418;10.074;2023-05-29T06:18:24;26.20;61.60
1175;DHT22;576;48.418;10.074;2023-05-29T06:20:53;26.20;61.70
1175;DHT22;576;48.418;10.074;2023-05-29T06:23:22;26.20;61.50
1175;DHT22;576;48.418;10.074;2023-05-29T06:25:50;26.20;61.60
1175;DHT22;576;48.418;10.074;2023-05-29T06:28:20;26.30;61.50
1175;DHT22;576;48.418;10.074;2023-05-29T06:30:49;26.30;61.50
1175;DHT22;576;48.418;10.074;2023-05-29T06:33:18;26.30;61.60
1175;DHT22;576;48.418;10.074;2023-05-29T06:35:48;26.30;61.70
1175;DHT22;576;48.418;10.074;2023-05-29T06:38:17;26.30;61.40
1175;DHT22;576;48.418;10.074;2023-05-29T06:40:45;26.30;61.50
1175;DHT22;576;48.418;10.074;2023-05-29T06:43:13;26.30;61.50
1175;DHT22;576;48.418;10.074;2023-05-29T06:45:48;26.30;61.60
1175;DHT22;576;48.418;10.074;2023-05-29T06:48:17;26.30;61.40
1175;DHT22;576;48.418;10.074;2023-05-29T06:50:47;26.30;61.30
1175;DHT22;576;48.418;10.074;2023-05-29T06:53:39;26.30;61.50
1175;DHT22;576;48.418;10.074;2023-05-29T06:56:09;26.30;61.50
1175;DHT22;576;48.418;10.074;2023-05-29T06:58:37;26.30;61.60
1175;DHT22;576;48.418;10.074;2023-05-29T07:01:08;26.30;61.40
1175;DHT22;576;48.418;10.074;2023-05-29T07:03:42;26.30;61.40
1175;DHT22;576;48.418;10.074;2023-05-29T07:06:10;26.30;61.60
1175;DHT22;576;48.418;10.074;2023-05-29T07:08:38;26.30;61.40
1175;DHT22;576;48.418;10.074;2023-05-29T07:11:07;26.30;61.60
1175;DHT22;576;48.418;10.074;2023-05-29T07:13:35;26.30;61.40
1175;DHT22;576;48.418;10.074;2023-05-29T07:16:03;26.30;61.50
1175;DHT22;576;48.418;10.074;2023-05-29T07:18:54;26.30;61.60
1175;DHT22;576;48.418;10.074;2023-05-29T07:21:22;26.30;61.60
1175;DHT22;576;48.418;10.074;2023-05-29T07:23:50;26.30;61.60
1175;DHT22;576;48.418;10.074;2023-05-29T07:26:19;26.30;61.60
1175;DHT22;576;48.418;10.074;2023-05-29T07:28:49;26.30;61.50
1175;DHT22;576;48.418;10.074;2023-05-29T07:31:18;26.30;61.60
1175;DHT22;576;48.418;10.074;2023-05-29T07:33:48;26.30;61.60
1175;DHT22;576;48.418;10.074;2023-05-29T07:36:18;26.30;61.40
1175;DHT22;576;48.418;10.074;2023-05-29T07:38:49;26.40;61.50
1175;DHT22;576;48.418;10.074;2023-05-29T07:41:18;26.40;61.50
1175;DHT22;576;48.418;10.074;2023-05-29T07:43:51;26.40;61.50
1175;DHT22;576;48.418;10.074;2023-05-29T07:46:20;26.30;61.50
1175;DHT22;576;48.418;10.074;2023-05-29T07:48:52;26.40;61.50
1175;DHT22;576;48.418;10.074;2023-05-29T07:51:22;26.40;61.50
1175;DHT22;576;48.418;10.074;2023-05-29T07:53:51;26.40;61.50
1175;DHT22;576;48.418;10.074;2023-05-29T07:56:20;26.40;61.50
1175;DHT22;576;48.418;10.074;2023-05-29T07:58:48;26.40;61.50
1175;DHT22;576;48.418;10.074;2023-05-29T08:01:16;26.40;61.40
1175;DHT22;576;48.418;10.074;2023-05-29T08:03:44;26.40;61.40
1175;DHT22;576;48.418;10.074;2023-05-29T08:06:26;26.40;61.40
1175;DHT22;576;48.418;10.074;2023-05-29T08:08:57;26.40;61.50
1175;DHT22;576;48.418;10.074;2023-05-29T08:11:26;26.40;61.30
1175;DHT22;576;48.418;10.074;2023-05-29T08:13:54;26.40;61.30
1175;DHT22;576;48.418;10.074;2023-05-29T08:16:23;26.40;61.40
1175;DHT22;576;48.418;10.074;2023-05-29T08:18:51;26.40;61.40
1175;DHT22;576;48.418;10.074;2023-05-29T08:21:19;26.40;61.10
1175;DHT22;576;48.418;10.074;2023-05-29T08:23:49;26.40;61.30
1175;DHT22;576;48.418;10.074;2023-05-29T08:26:17;26.40;61.30
1175;DHT22;576;48.418;10.074;2023-05-29T08:28:45;26.40;61.30
1175;DHT22;576;48.418;10.074;2023-05-29T08:31:14;26.40;61.10
1175;DHT22;576;48.418;10.074;2023-05-29T08:33:43;26.40;61.30
1175;DHT22;576;48.418;10.074;2023-05-29T08:36:12;26.40;61.20
1175;DHT22;576;48.418;10.074;2023-05-29T08:38:40;26.40;61.30
1175;DHT22;576;48.418;10.074;2023-05-29T08:43:41;26.40;61.20
1175;DHT22;576;48.418;10.074;2023-05-29T08:46:09;26.40;61.30
1175;DHT22;576;48.418;10.074;2023-05-29T08:48:40;26.40;61.20
1175;DHT22;576;48.418;10.074;2023-05-29T08:51:10;26.40;61.20
1175;DHT22;576;48.418;10.074;2023-05-29T08:53:38;26.50;61.20
1175;DHT22;576;48.418;10.074;2023-05-29T08:56:10;26.50;61.10
1175;DHT22;576;48.418;10.074;2023-05-29T08:58:57;26.50;61.10
1175;DHT22;576;48.418;10.074;2023-05-29T09:01:26;26.50;61.10
1175;DHT22;576;48.418;10.074;2023-05-29T09:03:54;26.50;61.10
1175;DHT22;576;48.418;10.074;2023-05-29T09:06:23;26.50;61.10
1175;DHT22;576;48.418;10.074;2023-05-29T09:08:52;26.50;61.10
1175;DHT22;576;48.418;10.074;2023-05-29T09:11:22;26.50;61.20
1175;DHT22;576;48.418;10.074;2023-05-29T09:13:52;26.50;61.20
1175;DHT22;576;48.418;10.074;2023-05-29T09:16:20;26.50;61.10
1175;DHT22;576;48.418;10.074;2023-05-29T09:18:49;26.50;61.10
1175;DHT22;576;48.418;10.074;2023-05-29T09:21:26;26.50;61.10
1175;DHT22;576;48.418;10.074;2023-05-29T09:24:03;26.50;61.10
1175;DHT22;576;48.418;10.074;2023-05-29T09:26:33;26.50;61.10
1175;DHT22;576;48.418;10.074;2023-05-29T09:29:02;26.50;61.10
1175;DHT22;576;48.418;10.074;2023-05-29T09:31:30;26.50;61.10
1175;DHT22;576;48.418;10.074;2023-05-29T09:34:01;26.50;61.10
1175;DHT22;576;48.418;10.074;2023-05-29T09:36:31;26.50;61.10
1175;DHT22;576;48.418;10.074;2023-05-29T09:39:02;26.50;61.10
1175;DHT22;576;48.418;10.074;2023-05-29T09:41:44;26.50;61.10
1175;DHT22;576;48.418;10.074;2023-05-29T09:44:13;26.50;61.10
1175;DHT22;576;48.418;10.074;2023-05-29T09:46:42;26.50;61.10
1175;DHT22;576;48.418;10.074;2023-05-29T09:49:12;26.50;61.10
1175;DHT22;576;48.418;10.074;2023-05-29T09:51:40;26.60;61.10
1175;DHT22;576;48.418;10.074;2023-05-29T09:54:15;26.60;61.00
1175;DHT22;576;48.418;10.074;2023-05-29T09:56:45;26.60;61.00
1175;DHT22;576;48.418;10.074;2023-05-29T09:59:15;26.60;61.00
1175;DHT22;576;48.418;10.074;2023-05-29T10:01:47;26.60;61.00
1175;DHT22;576;48.418;10.074;2023-05-29T10:04:16;26.60;61.00
1175;DHT22;576;48.418;10.074;2023-05-29T10:06:45;26.60;61.00
1175;DHT22;576;48.418;10.074;2023-05-29T10:09:18;26.60;60.90
1175;DHT22;576;48.418;10.074;2023-05-29T10:11:49;26.60;60.90
1175;DHT22;576;48.418;10.074;2023-05-29T10:14:21;26.60;60.90
1175;DHT22;576;48.418;10.074;2023-05-29T10:16:50;26.60;60.90
1175;DHT22;576;48.418;10.074;2023-05-29T10:19:25;26.60;60.90
1175;DHT22;576;48.418;10.074;2023-05-29T10:21:54;26.60;60.90
1175;DHT22;576;48.418;10.074;2023-05-29T10:24:24;26.60;60.90
1175;DHT22;576;48.418;10.074;2023-05-29T10:26:55;26.60;60.90
1175;DHT22;576;48.418;10.074;2023-05-29T10:29:28;26.60;60.90
1175;DHT22;576;48.418;10.074;2023-05-29T10:32:05;26.60;60.90
1175;DHT22;576;48.418;10.074;2023-05-29T10:34:41;26.60;60.90
1175;DHT22;576;48.418;10.074;2023-05-29T10:37:21;26.60;60.90
1175;DHT22;576;48.418;10.074;2023-05-29T10:39:52;26.60;60.80
1175;DHT22;576;48.418;10.074;2023-05-29T10:42:41;26.60;60.90
1175;DHT22;576;48.418;10.074;2023-05-29T10:45:48;26.60;60.90
1175;DHT22;576;48.418;10.074;2023-05-29T10:48:39;26.60;60.90
1175;DHT22;576;48.418;10.074;2023-05-29T10:51:08;26.60;60.90
1175;DHT22;576;48.418;10.074;2023-05-29T10:53:40;26.60;60.80
1175;DHT22;576;48.418;10.074;2023-05-29T10:56:15;26.60;60.80
1175;DHT22;576;48.418;10.074;2023-05-29T10:58:52;26.60;60.80
1175;DHT22;576;48.418;10.074;2023-05-29T11:01:21;26.60;60.80
1175;DHT22;576;48.418;10.074;2023-05-29T11:03:50;26.60;60.80
1175;DHT22;576;48.418;10.074;2023-05-29T11:06:21;26.70;60.80
1175;DHT22;576;48.418;10.074;2023-05-29T11:08:54;26.70;60.80
1175;DHT22;576;48.418;10.074;2023-05-29T11:11:29;26.70;60.80
1175;DHT22;576;48.418;10.074;2023-05-29T11:14:03;26.60;60.90
1175;DHT22;576;48.418;10.074;2023-05-29T11:16:37;26.60;60.90
1175;DHT22;576;48.418;10.074;2023-05-29T11:19:06;26.60;60.90
1175;DHT22;576;48.418;10.074;2023-05-29T11:21:56;26.60;60.90
1175;DHT22;576;48.418;10.074;2023-05-29T11:24:26;26.60;60.90
1175;DHT22;576;48.418;10.074;2023-05-29T11:26:56;26.60;61.00
1175;DHT22;576;48.418;10.074;2023-05-29T11:29:32;26.60;61.00
1175;DHT22;576;48.418;10.074;2023-05-29T11:32:03;26.60;61.10
1175;DHT22;576;48.418;10.074;2023-05-29T11:34:32;26.50;61.10
1175;DHT22;576;48.418;10.074;2023-05-29T11:37:02;26.50;61.20
1175;DHT22;576;48.418;10.074;2023-05-29T11:39:30;26.50;61.20
1175;DHT22;576;48.418;10.074;2023-05-29T11:42:00;26.50;61.20
1175;DHT22;576;48.418;10.074;2023-05-29T11:44:29;26.50;61.30
1175;DHT22;576;48.418;10.074;2023-05-29T11:47:02;26.50;61.20
1175;DHT22;576;48.418;10.074;2023-05-29T11:49:33;26.50;61.20
1175;DHT22;576;48.418;10.074;2023-05-29T11:52:08;26.60;61.10
1175;DHT22;576;48.418;10.074;2023-05-29T11:54:42;26.60;61.10
1175;DHT22;576;48.418;10.074;2023-05-29T11:57:17;26.60;61.00
1175;DHT22;576;48.418;10.074;2023-05-29T11:59:46;26.70;61.00
1175;DHT22;576;48.418;10.074;2023-05-29T12:02:16;26.70;61.00
1175;DHT22;576;48.418;10.074;2023-05-29T12:04:59;26.90;60.70
1175;DHT22;576;48.418;10.074;2023-05-29T12:07:28;27.00;60.50
1175;DHT22;576;48.418;10.074;2023-05-29T12:09:56;27.20;60.10
1175;DHT22;576;48.418;10.074;2023-05-29T12:12:25;27.30;60.00
1175;DHT22;576;48.418;10.074;2023-05-29T12:14:56;27.50;59.60
1175;DHT22;576;48.418;10.074;2023-05-29T12:17:26;27.70;59.10
1175;DHT22;576;48.418;10.074;2023-05-29T12:19:57;27.80;58.80
1175;DHT22;576;48.418;10.074;2023-05-29T12:22:32;28.00;58.50
1175;DHT22;576;48.418;10.074;2023-05-29T12:25:06;28.10;58.30
1175;DHT22;576;48.418;10.074;2023-05-29T12:27:36;28.10;58.10
1175;DHT22;576;48.418;10.074;2023-05-29T12:30:10;28.20;58.00
1175;DHT22;576;48.418;10.074;2023-05-29T12:32:52;28.20;57.90
1175;DHT22;576;48.418;10.074;2023-05-29T12:35:22;28.20;58.00
1175;DHT22;576;48.418;10.074;2023-05-29T12:37:54;28.20;58.00
1175;DHT22;576;48.418;10.074;2023-05-29T12:40:24;28.20;58.00
1175;DHT22;576;48.418;10.074;2023-05-29T12:42:55;28.10;58.10
1175;DHT22;576;48.418;10.074;2023-05-29T12:45:25;28.20;58.10
1175;DHT22;576;48.418;10.074;2023-05-29T12:47:57;28.10;58.10
1175;DHT22;576;48.418;10.074;2023-05-29T12:50:26;28.10;58.10
1175;DHT22;576;48.418;10.074;2023-05-29T12:52:56;28.10;58.10
1175;DHT22;576;48.418;10.074;2023-05-29T12:55:25;28.10;58.20
1175;DHT22;576;48.418;10.074;2023-05-29T12:57:53;28.10;58.30
1175;DHT22;576;48.418;10.074;2023-05-29T13:00:22;28.10;58.30
1175;DHT22;576;48.418;10.074;2023-05-29T13:02:51;28.10;58.30
1175;DHT22;576;48.418;10.074;2023-05-29T13:05:21;28.00;58.30
1175;DHT22;576;48.418;10.074;2023-05-29T13:07:51;28.00;58.40
1175;DHT22;576;48.418;10.074;2023-05-29T13:10:20;28.00;58.40
1175;DHT22;576;48.418;10.074;2023-05-29T13:12:49;28.00;58.40
1175;DHT22;576;48.418;10.074;2023-05-29T13:15:22;28.00;58.40
1175;DHT22;576;48.418;10.074;2023-05-29T13:17:51;27.90;58.50
1175;DHT22;576;48.418;10.074;2023-05-29T13:20:21;27.90;58.50
1175;DHT22;576;48.418;10.074;2023-05-29T13:22:50;27.90;58.60
1175;DHT22;576;48.418;10.074;2023-05-29T13:25:20;27.90;58.60
1175;DHT22;576;48.418;10.074;2023-05-29T13:27:51;27.90;58.70
1175;DHT22;576;48.418;10.074;2023-05-29T13:30:19;27.90;58.70
1175;DHT22;576;48.418;10.074;2023-05-29T13:32:50;27.90;58.70
1175;DHT22;576;48.418;10.074;2023-05-29T13:35:18;27.80;58.80
1175;DHT22;576;48.418;10.074;2023-05-29T13:37:48;27.80;58.80
1175;DHT22;576;48.418;10.074;2023-05-29T13:40:17;27.80;58.80
1175;DHT22;576;48.418;10.074;2023-05-29T13:42:45;27.90;58.80
1175;DHT22;576;48.418;10.074;2023-05-29T13:45:13;27.80;58.80
1175;DHT22;576;48.418;10.074;2023-05-29T13:47:41;27.90;58.80
1175;DHT22;576;48.418;10.074;2023-05-29T13:50:10;27.90;58.80
1175;DHT22;576;48.418;10.074;2023-05-29T13:52:38;27.80;58.80
1175;DHT22;576;48.418;10.074;2023-05-29T13:55:08;27.90;58.80
1175;DHT22;576;48.418;10.074;2023-05-29T13:57:36;27.90;58.80
1175;DHT22;576;48.418;10.074;2023-05-29T14:00:06;27.90;58.80
1175;DHT22;576;48.418;10.074;2023-05-29T14:02:34;27.90;58.80
1175;DHT22;576;48.418;10.074;2023-05-29T14:05:03;27.90;58.80
1175;DHT22;576;48.418;10.074;2023-05-29T14:07:32;27.90;58.80
1175;DHT22;576;48.418;10.074;2023-05-29T14:10:01;27.90;58.80
1175;DHT22;576;48.418;10.074;2023-05-29T14:12:31;27.90;58.80
1175;DHT22;576;48.418;10.074;2023-05-29T14:14:59;27.90;58.80
1175;DHT22;576;48.418;10.074;2023-05-29T14:17:27;27.90;58.80
1175;DHT22;576;48.418;10.074;2023-05-29T14:19:55;27.90;58.90
1175;DHT22;576;48.418;10.074;2023-05-29T14:22:23;27.90;58.80
1175;DHT22;576;48.418;10.074;2023-05-29T14:24:52;27.90;58.90
1175;DHT22;576;48.418;10.074;2023-05-29T14:27:20;27.90;58.90
1175;DHT22;576;48.418;10.074;2023-05-29T14:29:51;27.90;58.90
1175;DHT22;576;48.418;10.074;2023-05-29T14:32:19;27.90;58.90
1175;DHT22;576;48.418;10.074;2023-05-29T14:34:47;27.90;58.90
1175;DHT22;576;48.418;10.074;2023-05-29T14:37:16;27.90;59.00
1175;DHT22;576;48.418;10.074;2023-05-29T14:39:44;27.90;59.00
1175;DHT22;576;48.418;10.074;2023-05-29T14:42:13;27.90;59.00
1175;DHT22;576;48.418;10.074;2023-05-29T14:44:42;27.90;59.00
1175;DHT22;576;48.418;10.074;2023-05-29T14:47:12;27.90;59.00
1175;DHT22;576;48.418;10.074;2023-05-29T14:49:40;27.90;59.00
1175;DHT22;576;48.418;10.074;2023-05-29T14:52:08;27.90;59.10
1175;DHT22;576;48.418;10.074;2023-05-29T14:54:36;27.90;59.10
1175;DHT22;576;48.418;10.074;2023-05-29T14:57:05;27.90;59.10
1175;DHT22;576;48.418;10.074;2023-05-29T14:59:33;27.90;59.10
1175;DHT22;576;48.418;10.074;2023-05-29T15:02:01;27.90;59.10
1175;DHT22;576;48.418;10.074;2023-05-29T15:04:31;27.90;59.10
1175;DHT22;576;48.418;10.074;2023-05-29T15:06:59;27.90;59.10
1175;DHT22;576;48.418;10.074;2023-05-29T15:09:32;27.90;59.10
1175;DHT22;576;48.418;10.074;2023-05-29T15:12:01;27.90;59.20
1175;DHT22;576;48.418;10.074;2023-05-29T15:14:29;27.90;59.20
1175;DHT22;576;48.418;10.074;2023-05-29T15:16:58;27.90;59.20
1175;DHT22;576;48.418;10.074;2023-05-29T15:19:27;27.90;59.20
1175;DHT22;576;48.418;10.074;2023-05-29T15:21:57;27.90;59.20
1175;DHT22;576;48.418;10.074;2023-05-29T15:24:25;27.90;59.20
1175;DHT22;576;48.418;10.074;2023-05-29T15:26:53;27.90;59.20
1175;DHT22;576;48.418;10.074;2023-05-29T15:29:22;28.00;59.20
1175;DHT22;576;48.418;10.074;2023-05-29T15:31:52;28.00;59.20
1175;DHT22;576;48.418;10.074;2023-05-29T15:34:20;28.00;59.20
1175;DHT22;576;48.418;10.074;2023-05-29T15:36:48;28.00;59.20
1175;DHT22;576;48.418;10.074;2023-05-29T15:39:18;28.00;59.20
1175;DHT22;576;48.418;10.074;2023-05-29T15:41:47;28.00;59.20
1175;DHT22;576;48.418;10.074;2023-05-29T15:44:15;28.00;59.10
1175;DHT22;576;48.418;10.074;2023-05-29T15:46:44;28.00;59.10
1175;DHT22;576;48.418;10.074;2023-05-29T15:49:12;28.00;59.20
1175;DHT22;576;48.418;10.074;2023-05-29T15:51:40;28.00;59.10
1175;DHT22;576;48.418;10.074;2023-05-29T15:54:09;28.10;59.10
1175;DHT22;576;48.418;10.074;2023-05-29T15:56:39;28.00;59.10
1175;DHT22;576;48.418;10.074;2023-05-29T15:59:07;28.10;59.10
1175;DHT22;576;48.418;10.074;2023-05-29T16:01:35;28.10;59.10
1175;DHT22;576;48.418;10.074;2023-05-29T16:04:03;28.10;59.10
1175;DHT22;576;48.418;10.074;2023-05-29T16:06:33;28.10;59.00
1175;DHT22;576;48.418;10.074;2023-05-29T16:09:03;28.10;59.00
1175;DHT22;576;48.418;10.074;2023-05-29T16:11:31;28.10;59.00
1175;DHT22;576;48.418;10.074;2023-05-29T16:14:01;28.10;59.00
1175;DHT22;576;48.418;10.074;2023-05-29T16:16:29;28.10;59.00
1175;DHT22;576;48.418;10.074;2023-05-29T16:18:59;28.10;59.10
1175;DHT22;576;48.418;10.074;2023-05-29T16:21:28;28.10;59.00
1175;DHT22;576;48.418;10.074;2023-05-29T16:23:58;28.10;58.90
1175;DHT22;576;48.418;10.074;2023-05-29T16:26:27;28.10;58.90
1175;DHT22;576;48.418;10.074;2023-05-29T16:29:03;28.20;58.90